createdAt,value
2023-01-03T00:02:02.188Z,4.07
2023-01-03T00:04:30.519Z,4.53
2023-01-03T00:06:58.979Z,4.30
2023-01-03T00:09:27.510Z,4.57
2023-01-03T00:12:13.714Z,4.17
2023-01-03T00:14:44.610Z,4.73
2023-01-03T00:17:13.280Z,3.90
2023-01-03T00:19:42.450Z,4.40
2023-01-03T00:22:11.744Z,5.37
2023-01-03T00:24:40.083Z,4.13
2023-01-03T00:27:08.333Z,4.50
2023-01-03T00:29:36.919Z,5.33
2023-01-03T00:32:06.791Z,3.73
2023-01-03T00:34:35.048Z,5.03
2023-01-03T00:37:03.629Z,4.43
2023-01-03T00:39:31.853Z,4.93
2023-01-03T00:42:00.153Z,3.97
2023-01-03T00:44:28.409Z,4.33
2023-01-03T00:46:56.752Z,5.30
2023-01-03T00:49:26.495Z,4.93
2023-01-03T00:51:54.720Z,4.10
2023-01-03T00:54:23.810Z,3.70
2023-01-03T00:56:52.898Z,3.80
2023-01-03T00:59:22.174Z,4.40
2023-01-03T01:01:51.050Z,4.00
2023-01-03T01:04:20.353Z,4.30
2023-01-03T01:06:50.811Z,4.10
2023-01-03T01:09:21.186Z,3.70
2023-01-03T01:11:49.701Z,4.53
2023-01-03T01:14:21.296Z,4.23
2023-01-03T01:16:50.313Z,3.43
2023-01-03T01:19:19.022Z,5.40
2023-01-03T01:21:47.562Z,4.70
2023-01-03T01:24:18.280Z,3.97
2023-01-03T01:26:46.867Z,4.73
2023-01-03T01:29:15.832Z,3.63
2023-01-03T01:31:44.494Z,4.60
2023-01-03T01:34:13.226Z,4.00
2023-01-03T01:36:42.431Z,4.70
2023-01-03T01:39:13.329Z,4.10
2023-01-03T01:42:02.797Z,4.07
2023-01-03T01:44:45.555Z,4.50
2023-01-03T01:47:15.952Z,4.07
2023-01-03T01:49:44.568Z,4.10
2023-01-03T01:52:13.399Z,3.80
2023-01-03T01:54:42.098Z,4.10
2023-01-03T01:57:14.392Z,3.90
2023-01-03T01:59:42.730Z,3.17
2023-01-03T02:02:11.834Z,3.70
2023-01-03T02:04:41.641Z,3.43
2023-01-03T02:07:12.979Z,3.90
2023-01-03T02:09:41.410Z,3.83
2023-01-03T02:12:32.205Z,3.80
2023-01-03T02:15:10.479Z,3.50
2023-01-03T02:17:43.197Z,4.10
2023-01-03T02:20:20.101Z,3.83
2023-01-03T02:23:06.234Z,3.60
2023-01-03T02:25:55.362Z,3.40
2023-01-03T02:28:36.532Z,4.43
2023-01-03T02:31:07.174Z,4.07
2023-01-03T02:33:38.996Z,3.50
2023-01-03T02:36:09.013Z,4.00
2023-01-03T02:38:46.419Z,3.60
2023-01-03T02:41:21.125Z,3.90
2023-01-03T02:43:51.565Z,4.30
2023-01-03T02:46:24.204Z,3.80
2023-01-03T02:48:55.799Z,4.37
2023-01-03T02:51:25.390Z,3.23
2023-01-03T02:53:53.821Z,3.77
2023-01-03T02:56:24.600Z,3.20
2023-01-03T02:58:55.898Z,3.37
2023-01-03T03:01:25.849Z,4.37
2023-01-03T03:03:54.405Z,4.00
2023-01-03T03:06:25.516Z,2.83
2023-01-03T03:08:53.800Z,3.27
2023-01-03T03:11:39.599Z,3.33
2023-01-03T03:14:10.514Z,3.40
2023-01-03T03:16:49.267Z,3.23
2023-01-03T03:19:35.566Z,3.67
2023-01-03T03:22:23.586Z,2.87
2023-01-03T03:24:51.883Z,3.60
2023-01-03T03:27:41.273Z,3.60
2023-01-03T03:30:12.268Z,2.83
2023-01-03T03:32:43.488Z,3.60
2023-01-03T03:35:14.155Z,3.27
2023-01-03T03:37:44.188Z,3.83
2023-01-03T03:40:30.767Z,3.93
2023-01-03T03:43:18.644Z,3.47
2023-01-03T03:45:49.723Z,3.43
2023-01-03T03:48:21.782Z,3.60
2023-01-03T03:50:50.558Z,3.30
2023-01-03T03:53:20.542Z,2.70
2023-01-03T03:55:51.758Z,3.73
2023-01-03T03:58:22.429Z,3.20
2023-01-03T04:00:53.077Z,3.37
2023-01-03T04:03:23.629Z,3.00
2023-01-03T04:05:53.386Z,3.37
2023-01-03T04:08:21.742Z,2.73
2023-01-03T04:10:50.027Z,2.80
2023-01-03T04:13:18.324Z,2.40
2023-01-03T04:15:46.550Z,2.90
2023-01-03T04:18:14.872Z,3.30
2023-01-03T04:20:44.472Z,3.40
2023-01-03T04:23:12.683Z,2.40
2023-01-03T04:25:40.851Z,2.73
2023-01-03T04:28:09.158Z,2.00
2023-01-03T04:30:37.367Z,2.37
2023-01-03T04:33:06.106Z,2.53
2023-01-03T04:35:34.712Z,2.23
2023-01-03T04:38:04.405Z,2.60
2023-01-03T04:40:32.984Z,3.13
2023-01-03T04:43:18.853Z,2.60
2023-01-03T04:45:47.155Z,1.87
2023-01-03T04:48:15.484Z,2.70
2023-01-03T04:50:43.689Z,2.20
2023-01-03T04:53:15.016Z,2.30
2023-01-03T04:55:47.794Z,2.60
2023-01-03T04:58:16.072Z,1.90
2023-01-03T05:00:44.361Z,2.00
2023-01-03T05:03:12.644Z,2.20
2023-01-03T05:05:41.201Z,2.00
2023-01-03T05:08:10.364Z,1.93
2023-01-03T05:10:40.911Z,2.20
2023-01-03T05:13:09.295Z,2.60
2023-01-03T05:15:38.183Z,2.70
2023-01-03T05:18:06.857Z,2.70
2023-01-03T05:20:54.958Z,2.47
2023-01-03T05:23:41.548Z,2.80
2023-01-03T05:26:12.142Z,2.43
2023-01-03T05:28:40.745Z,2.70
2023-01-03T05:31:09.013Z,3.10
2023-01-03T05:33:39.093Z,2.43
2023-01-03T05:36:08.015Z,2.70
2023-01-03T05:38:36.239Z,2.40
2023-01-03T05:41:04.501Z,2.63
2023-01-03T05:43:34.200Z,3.10
2023-01-03T05:46:02.553Z,2.33
2023-01-03T05:48:30.818Z,2.10
2023-01-03T05:50:59.632Z,2.80
2023-01-03T05:53:27.908Z,3.10
2023-01-03T05:55:56.127Z,3.17
2023-01-03T05:58:24.423Z,2.67
2023-01-03T06:00:54.172Z,3.10
2023-01-03T06:03:22.374Z,2.90
2023-01-03T06:05:50.782Z,3.70
2023-01-03T06:08:18.993Z,3.17
2023-01-03T06:10:47.581Z,3.10
2023-01-03T06:13:16.025Z,3.00
2023-01-03T06:16:04.271Z,2.80
2023-01-03T06:18:34.675Z,2.90
2023-01-03T06:21:04.656Z,3.20
2023-01-03T06:23:33.220Z,4.70
2023-01-03T06:26:04.422Z,3.40
2023-01-03T06:28:33.633Z,3.13
2023-01-03T06:31:01.850Z,3.40
2023-01-03T06:33:30.173Z,2.80
2023-01-03T06:36:03.246Z,2.70
2023-01-03T06:38:33.890Z,3.40
2023-01-03T06:41:02.415Z,2.60
2023-01-03T06:43:30.852Z,2.80
2023-01-03T06:46:18.707Z,3.00
2023-01-03T06:49:05.192Z,2.37
2023-01-03T06:51:52.903Z,3.70
2023-01-03T06:54:22.831Z,3.40
2023-01-03T06:56:51.581Z,3.10
2023-01-03T06:59:19.876Z,2.97
2023-01-03T07:01:48.552Z,3.10
2023-01-03T07:04:17.762Z,3.80
2023-01-03T07:06:47.638Z,3.00
2023-01-03T07:09:16.174Z,3.70
2023-01-03T07:11:44.759Z,4.00
2023-01-03T07:14:12.615Z,3.90
2023-01-03T07:16:41.514Z,3.30
2023-01-03T07:19:10.637Z,3.03
2023-01-03T07:21:39.069Z,3.43
2023-01-03T07:24:09.669Z,3.80
2023-01-03T07:26:37.911Z,3.80
2023-01-03T07:29:06.960Z,3.60
2023-01-03T07:31:35.550Z,3.73
2023-01-03T07:34:03.830Z,3.30
2023-01-03T07:36:32.201Z,3.30
2023-01-03T07:39:00.422Z,3.33
2023-01-03T07:41:43.930Z,3.47
2023-01-03T07:44:12.300Z,3.30
2023-01-03T07:46:40.636Z,3.33
2023-01-03T07:49:12.619Z,2.70
2023-01-03T07:51:41.380Z,2.73
2023-01-03T07:54:10.970Z,2.67
2023-01-03T07:56:40.615Z,3.33
2023-01-03T07:59:09.055Z,3.87
2023-01-03T08:01:37.394Z,3.70
2023-01-03T08:04:07.619Z,3.90
2023-01-03T08:06:35.973Z,3.70
2023-01-03T08:09:22.084Z,4.30
2023-01-03T08:12:09.673Z,3.67
2023-01-03T08:14:37.962Z,3.47
2023-01-03T08:17:06.239Z,3.70
2023-01-03T08:19:37.735Z,3.77
2023-01-03T08:22:08.546Z,3.07
2023-01-03T08:24:36.745Z,3.73
2023-01-03T08:27:06.497Z,3.27
2023-01-03T08:29:34.807Z,4.23
2023-01-03T08:32:03.615Z,3.90
2023-01-03T08:34:33.703Z,3.63
2023-01-03T08:37:03.674Z,3.70
2023-01-03T08:39:34.264Z,3.03
2023-01-03T08:42:04.172Z,3.50
2023-01-03T08:44:33.817Z,3.50
2023-01-03T08:47:04.124Z,2.80
2023-01-03T08:49:32.687Z,2.83
2023-01-03T08:52:02.361Z,3.30
2023-01-03T08:54:30.553Z,3.50
2023-01-03T08:56:59.144Z,3.60
2023-01-03T08:59:27.311Z,3.00
2023-01-03T09:02:00.575Z,3.40
2023-01-03T09:04:28.972Z,2.67
2023-01-03T09:06:57.523Z,3.03
2023-01-03T09:09:25.890Z,3.57
2023-01-03T09:11:54.094Z,4.23
2023-01-03T09:14:22.575Z,3.20
2023-01-03T09:16:50.925Z,3.20
2023-01-03T09:19:20.552Z,2.80
2023-01-03T09:21:48.935Z,4.00
2023-01-03T09:24:17.422Z,3.17
2023-01-03T09:26:50.679Z,4.17
2023-01-03T09:29:22.342Z,3.70
2023-01-03T09:31:51.531Z,3.20
2023-01-03T09:34:21.552Z,4.20
2023-01-03T09:36:49.832Z,3.50
2023-01-03T09:39:18.021Z,2.80
2023-01-03T09:42:06.202Z,3.03
2023-01-03T09:44:34.716Z,3.80
2023-01-03T09:47:03.525Z,3.07
2023-01-03T09:49:33.263Z,3.23
2023-01-03T09:52:30.758Z,2.57
2023-01-03T09:55:16.388Z,2.70
2023-01-03T09:58:02.551Z,3.10
2023-01-03T10:00:52.095Z,3.07
2023-01-03T10:03:51.147Z,2.80
2023-01-03T10:06:31.685Z,2.87
2023-01-03T10:09:08.012Z,2.87
2023-01-03T10:11:40.656Z,2.70
2023-01-03T10:14:14.598Z,2.80
2023-01-03T10:16:48.776Z,3.10
2023-01-03T10:19:26.464Z,2.90
2023-01-03T10:22:00.834Z,2.93
2023-01-03T10:24:31.563Z,3.80
2023-01-03T10:27:05.428Z,2.30
2023-01-03T10:29:33.667Z,2.47
2023-01-03T10:32:07.243Z,2.30
2023-01-03T10:34:35.508Z,2.30
2023-01-03T10:37:11.061Z,2.20
2023-01-03T10:39:40.669Z,2.20
2023-01-03T10:42:08.941Z,2.13
2023-01-03T10:44:37.253Z,1.97
2023-01-03T10:47:11.013Z,1.73
2023-01-03T10:49:39.319Z,2.30
2023-01-03T10:52:13.849Z,2.60
2023-01-03T10:54:48.794Z,1.73
2023-01-03T10:57:43.532Z,1.63
2023-01-03T11:00:26.479Z,2.03
2023-01-03T11:02:55.678Z,2.27
2023-01-03T11:05:25.007Z,1.30
2023-01-03T11:07:56.783Z,1.63
2023-01-03T11:10:25.702Z,2.13
2023-01-03T11:12:54.842Z,1.50
2023-01-03T11:15:29.062Z,2.00
2023-01-03T11:18:01.678Z,2.03
2023-01-03T11:20:34.960Z,1.87
2023-01-03T11:23:07.938Z,1.50
2023-01-03T11:25:41.130Z,1.70
2023-01-03T11:28:22.783Z,1.93
2023-01-03T11:30:54.925Z,1.40
2023-01-03T11:33:30.360Z,1.77
2023-01-03T11:36:08.283Z,1.60
2023-01-03T11:38:46.901Z,1.40
2023-01-03T11:41:25.997Z,1.47
2023-01-03T11:44:01.216Z,1.37
2023-01-03T11:46:35.234Z,1.60
2023-01-03T11:49:11.005Z,1.43
2023-01-03T11:51:43.184Z,1.50
2023-01-03T11:54:18.551Z,1.50
2023-01-03T11:56:48.681Z,1.60
2023-01-03T11:59:24.390Z,2.30
2023-01-03T12:02:03.772Z,1.50
2023-01-03T12:04:38.088Z,1.33
2023-01-03T12:10:03.913Z,1.63
2023-01-03T12:12:50.198Z,1.23
2023-01-03T12:15:20.793Z,1.70
2023-01-03T12:17:53.351Z,1.20
2023-01-03T12:20:23.208Z,1.30
2023-01-03T12:22:54.263Z,1.20
2023-01-03T12:25:28.645Z,1.30
2023-01-03T12:27:59.313Z,1.90
2023-01-03T12:30:36.486Z,1.70
2023-01-03T12:33:07.275Z,1.10
2023-01-03T12:35:39.600Z,1.90
2023-01-03T12:38:08.167Z,1.60
2023-01-03T12:40:40.911Z,1.20
2023-01-03T12:43:13.882Z,1.53
2023-01-03T12:45:49.387Z,1.47
2023-01-03T12:48:23.151Z,1.53
2023-01-03T12:50:55.474Z,1.00
2023-01-03T12:53:25.980Z,1.70
2023-01-03T12:56:01.392Z,1.50
2023-01-03T12:58:39.616Z,1.53
2023-01-03T13:01:10.364Z,1.40
2023-01-03T13:03:40.300Z,1.47
2023-01-03T13:06:14.140Z,1.50
2023-01-03T13:08:44.556Z,1.40
2023-01-03T13:11:19.182Z,1.27
2023-01-03T13:13:51.420Z,1.13
2023-01-03T13:16:38.255Z,1.57
2023-01-03T13:19:25.226Z,1.50
2023-01-03T13:22:03.565Z,1.40
2023-01-03T13:24:41.777Z,1.20
2023-01-03T13:27:36.409Z,1.40
2023-01-03T13:30:05.698Z,1.00
2023-01-03T13:32:48.073Z,1.20
2023-01-03T13:35:36.464Z,1.17
2023-01-03T13:38:28.544Z,1.40
2023-01-03T13:43:50.383Z,1.63
2023-01-03T13:46:23.240Z,1.20
2023-01-03T13:48:56.005Z,1.00
2023-01-03T13:51:39.426Z,1.50
2023-01-03T13:54:23.657Z,1.30
2023-01-03T13:56:59.153Z,1.43
2023-01-03T13:59:31.329Z,1.60
2023-01-03T14:02:03.213Z,1.73
2023-01-03T14:04:47.985Z,3.27
2023-01-03T14:07:31.249Z,1.13
2023-01-03T14:10:04.831Z,1.20
2023-01-03T14:12:51.414Z,1.20
2023-01-03T14:15:26.245Z,1.30
2023-01-03T14:17:56.675Z,1.70
2023-01-03T14:20:28.530Z,1.57
2023-01-03T14:22:57.546Z,1.70
2023-01-03T14:25:35.972Z,1.30
2023-01-03T14:28:06.393Z,2.03
2023-01-03T14:30:37.405Z,1.90
2023-01-03T14:33:06.000Z,2.10
2023-01-03T14:35:38.703Z,1.90
2023-01-03T14:38:07.621Z,1.60
2023-01-03T14:40:35.957Z,1.40
2023-01-03T14:43:05.670Z,1.63
2023-01-03T14:45:33.895Z,2.30
2023-01-03T14:48:03.502Z,1.87
2023-01-03T14:50:33.644Z,1.30
2023-01-03T14:53:02.548Z,1.50
2023-01-03T14:55:32.395Z,1.67
2023-01-03T14:58:01.363Z,1.37
2023-01-03T15:00:33.268Z,2.13
2023-01-03T15:03:03.003Z,1.77
2023-01-03T15:05:34.011Z,1.77
2023-01-03T15:08:09.322Z,2.03
2023-01-03T15:10:43.709Z,1.10
2023-01-03T15:13:17.539Z,1.30
2023-01-03T15:15:46.033Z,2.13
2023-01-03T15:18:20.279Z,1.70
2023-01-03T15:20:52.600Z,2.03
2023-01-03T15:23:29.189Z,2.95
2023-01-03T15:25:57.466Z,2.10
2023-01-03T15:28:27.283Z,1.77
2023-01-03T15:30:57.092Z,1.60
2023-01-03T15:33:33.086Z,2.30
2023-01-03T15:36:05.335Z,1.70
2023-01-03T15:38:35.365Z,2.70
2023-01-03T15:41:06.371Z,1.90
2023-01-03T15:43:37.221Z,2.13
2023-01-03T15:46:06.654Z,2.23
2023-01-03T15:48:38.924Z,2.40
2023-01-03T15:51:08.699Z,1.83
2023-01-03T15:53:43.795Z,2.27
2023-01-03T15:56:17.154Z,2.20
2023-01-03T15:58:45.412Z,2.30
2023-01-03T16:01:14.340Z,2.63
2023-01-03T16:03:42.749Z,2.23
2023-01-03T16:06:12.399Z,2.63
2023-01-03T16:08:42.490Z,2.33
2023-01-03T16:11:18.159Z,3.03
2023-01-03T16:13:49.643Z,1.80
2023-01-03T16:16:21.375Z,2.80
2023-01-03T16:18:49.729Z,2.73
2023-01-03T16:21:19.418Z,2.00
2023-01-03T16:23:47.699Z,2.50
2023-01-03T16:26:16.891Z,2.43
2023-01-03T16:28:45.191Z,3.00
2023-01-03T16:31:16.037Z,2.93
2023-01-03T16:33:44.919Z,2.17
2023-01-03T16:36:23.349Z,2.70
2023-01-03T16:38:53.072Z,2.17
2023-01-03T16:41:21.405Z,2.63
2023-01-03T16:43:49.654Z,2.73
2023-01-03T16:46:20.703Z,2.00
2023-01-03T16:48:52.707Z,2.43
2023-01-03T16:51:24.294Z,2.00
2023-01-03T16:53:54.358Z,2.00
2023-01-03T16:56:22.753Z,2.50
2023-01-03T16:58:51.012Z,2.47
2023-01-03T17:01:19.359Z,2.40
2023-01-03T17:03:47.735Z,2.27
2023-01-03T17:06:23.651Z,2.30
2023-01-03T17:08:52.043Z,2.50
2023-01-03T17:11:21.793Z,2.60
2023-01-03T17:13:50.217Z,2.40
2023-01-03T17:16:29.531Z,1.90
2023-01-03T17:18:57.876Z,2.03
2023-01-03T17:21:26.964Z,2.50
2023-01-03T17:23:59.288Z,2.10
2023-01-03T17:26:29.328Z,1.73
2023-01-03T17:28:58.127Z,2.03
2023-01-03T17:31:27.163Z,2.50
2023-01-03T17:33:55.809Z,2.40
2023-01-03T17:36:25.476Z,2.70
2023-01-03T17:38:59.919Z,2.10
2023-01-03T17:41:30.085Z,2.20
2023-01-03T17:43:58.439Z,1.80
2023-01-03T17:46:45.726Z,1.83
2023-01-03T17:49:26.901Z,1.80
2023-01-03T17:51:55.730Z,1.80
2023-01-03T17:54:33.013Z,3.00
2023-01-03T17:57:04.766Z,2.30
2023-01-03T17:59:33.265Z,2.30
2023-01-03T18:02:01.690Z,2.27
2023-01-03T18:04:50.122Z,2.20
2023-01-03T18:07:21.541Z,2.57
2023-01-03T18:09:50.480Z,2.17
2023-01-03T18:12:21.278Z,1.90
2023-01-03T18:14:51.051Z,2.23
2023-01-03T18:17:26.521Z,1.97
2023-01-03T18:19:55.197Z,1.90
2023-01-03T18:22:24.856Z,1.63
2023-01-03T18:24:54.129Z,2.00
2023-01-03T18:27:24.641Z,2.20
2023-01-03T18:30:06.386Z,1.83
2023-01-03T18:32:36.001Z,1.90
2023-01-03T18:35:04.234Z,2.17
2023-01-03T18:37:34.655Z,2.40
2023-01-03T18:40:03.237Z,3.47
2023-01-03T18:42:50.717Z,2.00
2023-01-03T18:45:19.000Z,2.10
2023-01-03T18:47:47.212Z,1.70
2023-01-03T18:50:19.216Z,2.90
2023-01-03T18:52:48.511Z,2.50
2023-01-03T18:55:18.325Z,2.83
2023-01-03T18:57:49.760Z,2.63
2023-01-03T19:00:19.203Z,2.07
2023-01-03T19:02:47.636Z,2.27
2023-01-03T19:05:16.256Z,2.20
2023-01-03T19:07:45.263Z,3.80
2023-01-03T19:10:20.356Z,2.80
2023-01-03T19:12:50.517Z,3.30
2023-01-03T19:15:19.446Z,2.30
2023-01-03T19:17:48.063Z,2.90
2023-01-03T19:20:18.648Z,2.37
2023-01-03T19:22:52.397Z,2.40
2023-01-03T19:25:25.119Z,2.50
2023-01-03T19:27:56.223Z,2.47
2023-01-03T19:30:33.376Z,2.10
2023-01-03T19:33:06.066Z,2.47
2023-01-03T19:35:47.325Z,2.80
2023-01-03T19:38:15.605Z,2.27
2023-01-03T19:40:45.761Z,2.50
2023-01-03T19:43:21.711Z,1.90
2023-01-03T19:45:50.614Z,2.53
2023-01-03T19:48:22.010Z,2.40
2023-01-03T19:50:50.668Z,1.80
2023-01-03T19:53:25.815Z,1.97
2023-01-03T19:55:54.596Z,2.37
2023-01-03T19:58:29.195Z,2.03
2023-01-03T20:00:57.975Z,1.70
2023-01-03T20:03:43.654Z,2.37
2023-01-03T20:06:12.802Z,1.77
2023-01-03T20:08:41.392Z,2.87
2023-01-03T20:11:15.820Z,2.87
2023-01-03T20:13:48.056Z,2.20
2023-01-03T20:16:17.746Z,2.67
2023-01-03T20:18:59.121Z,2.33
2023-01-03T20:21:31.882Z,2.20
2023-01-03T20:24:02.230Z,2.67
2023-01-03T20:26:32.286Z,3.23
2023-01-03T20:29:02.220Z,2.30
2023-01-03T20:31:31.624Z,1.90
2023-01-03T20:34:00.983Z,2.00
2023-01-03T20:36:32.554Z,2.00
2023-01-03T20:39:23.445Z,2.03
2023-01-03T20:42:03.764Z,2.80
2023-01-03T20:44:33.781Z,2.10
2023-01-03T20:47:02.064Z,2.10
2023-01-03T20:49:33.299Z,2.27
2023-01-03T20:52:02.575Z,3.33
2023-01-03T20:54:38.812Z,2.37
2023-01-03T20:57:07.683Z,2.53
2023-01-03T20:59:39.433Z,1.60
2023-01-03T21:02:11.050Z,2.63
2023-01-03T21:04:39.673Z,2.27
2023-01-03T21:07:19.630Z,2.20
2023-01-03T21:09:47.970Z,2.57
2023-01-03T21:12:16.208Z,2.40
2023-01-03T21:14:51.063Z,2.63
2023-01-03T21:17:27.548Z,2.47
2023-01-03T21:19:56.973Z,2.30
2023-01-03T21:22:25.300Z,1.93
2023-01-03T21:24:59.701Z,1.97
2023-01-03T21:27:28.007Z,1.90
2023-01-03T21:29:57.657Z,1.80
2023-01-03T21:32:30.005Z,3.07
2023-01-03T21:34:58.328Z,2.23
2023-01-03T21:37:26.555Z,2.00
2023-01-03T21:39:55.160Z,2.87
2023-01-03T21:42:40.868Z,2.57
2023-01-03T21:45:13.659Z,2.20
2023-01-03T21:47:41.872Z,2.10
2023-01-03T21:50:11.752Z,1.70
2023-01-03T21:52:39.968Z,1.80
2023-01-03T21:55:09.018Z,2.63
2023-01-03T21:57:37.257Z,3.27
2023-01-03T22:00:06.099Z,2.17
2023-01-03T22:02:59.690Z,2.10
2023-01-03T22:05:28.713Z,2.63
2023-01-03T22:07:57.152Z,2.30
2023-01-03T22:10:25.804Z,2.10
2023-01-03T22:12:55.724Z,2.40
2023-01-03T22:15:24.539Z,2.40
2023-01-03T22:17:54.392Z,2.17
2023-01-03T22:20:23.848Z,3.00
2023-01-03T22:22:52.403Z,2.20
2023-01-03T22:25:21.589Z,2.57
2023-01-03T22:27:49.857Z,1.93
2023-01-03T22:30:18.884Z,2.77
2023-01-03T22:32:47.504Z,2.83
2023-01-03T22:35:18.983Z,2.27
2023-01-03T22:37:47.440Z,2.30
2023-01-03T22:40:16.726Z,1.90
2023-01-03T22:42:45.082Z,2.10
2023-01-03T22:45:15.467Z,2.93
2023-01-03T22:47:43.732Z,2.10
2023-01-03T22:50:12.945Z,2.90
2023-01-03T22:52:43.683Z,2.40
2023-01-03T22:55:12.012Z,2.10
2023-01-03T22:57:40.251Z,2.40
2023-01-03T23:00:10.526Z,2.40
2023-01-03T23:02:41.913Z,2.40
2023-01-03T23:05:10.742Z,1.97
2023-01-03T23:07:44.884Z,2.17
2023-01-03T23:10:14.556Z,2.70
2023-01-03T23:13:00.255Z,2.40
2023-01-03T23:15:29.065Z,2.10
2023-01-03T23:17:57.351Z,2.03
2023-01-03T23:20:26.592Z,3.00
2023-01-03T23:22:59.666Z,2.33
2023-01-03T23:25:29.796Z,2.43
2023-01-03T23:27:58.069Z,2.07
2023-01-03T23:30:26.961Z,3.20
2023-01-03T23:32:55.235Z,2.23
2023-01-03T23:35:23.414Z,2.13
2023-01-03T23:37:51.731Z,1.70
2023-01-03T23:40:19.971Z,2.70
2023-01-03T23:42:49.527Z,2.63
2023-01-03T23:45:17.865Z,2.40
2023-01-03T23:47:46.104Z,2.03
2023-01-03T23:50:14.271Z,2.83
2023-01-03T23:52:42.804Z,2.70
2023-01-03T23:55:12.892Z,2.60
2023-01-03T23:57:41.378Z,2.93
